Airfield :
LOGIN :

Register | Disclaimer

   EN    FR    IT 

 










Legend :    VFR   Marginal VFR   IFR   Intensive IFR   Very Intensive IFR
Visi :
Ceiling :
>= 8 km
>= 3000ft
5 to 8 km
1000 to 3000 ft
1500m to 5 km
500 to 1000 ft
800 to 1500m
200 to 500 ft
< 800m
< 200 ft
Symbols :   Thunderstorms  Fog  Heavy snow  Heavy precipitations  Wind > 20 kt
SIGMETs :     Misc.  Thunderstorms  Icing  Turbulence  Mountain Waves  Volcanic Ashes







- Airport Elevation : 645 ft
- IATA code : DLE
- Download approach charts


LFGJ - Dole Tavaux

CURRENT METAR :
  • 190900Z AUTO 01014KT CAVOK 01/M03 Q1010 NOSIG

EXPIRED METARs :
  • 190830Z AUTO 01012KT CAVOK 01/M03 Q1010 NOSIG
  • 190800Z AUTO 02013KT 9999 BKN049 01/M03 Q1010 NOSIG
  • 190730Z AUTO 01015KT 9999 BKN046 M00/M03 Q1010 NOSIG
  • 190700Z AUTO 36011KT CAVOK M01/M03 Q1010 NOSIG

TAF TAF LFGJ
Valid from the 19 at 09:00 until the 19 at 18:00 UTC


190800Z 1909/1918 01015KT CAVOK
TEMPO 1912/1918 05015G25KT
No reported NOTAMs for that airfield.



MET'MAP, your aeronautical weather chart ! - Copyright ORBIFLY December 2007 - Disclaimer

ORBIFLY MET'MAP TEAM :

Programming & Development : Alexandra Zaïnal
Concept & Development : Baudouin d'Aumeries
Co-Development & Prog : Marc-Olivier Méhu
Technical & hardware support : Manuel Goepfert

Contact : metmap@orbifly.com




SOURCES & CREDITS :

   NOAA